Xin Dan Dong — BPBY — position and weather

sailwx.info

Track history (hours):
 
Tides and Currents Weather Stations Pressure Air Temp Water Temp Dewpoint Dewpoint Depression Visibility Wind Speed Wind Dir Waves Ship Positions

Xin Dan Dong

Last reported at 2017-Feb-20 15:11 UTC. Time now 2017-Mar-23 12:25 UTC.
Position N 01°57' E 102°16'.
Warning: this ship's position is 30 days out of date.

Length 263 m; draft 12.9 m.

Type: Cargo ship. MMSI: 413153000.

Date/timePositionNaut miles runAvg speedWind from/ knotsBaromVisibWave heightAir tempDewpointWater temp
2017-Feb-20 15:11N 01°57' E 102°16'1016.1
2017-Feb-20 14:33N 01°52' E 102°25'1716.8
2017-Feb-20 13:33N 01°45' E 102°41'3916.4
2017-Feb-20 11:09N 01°24' E 103°14'1016.5
2017-Feb-20 10:33N 01°17' E 103°21'1211.4
2017-Feb-20 09:32N 01°16' E 103°33'5 1.2
2017-Feb-20 05:17N 01°22' E 103°33'0 0.0
2017-Feb-19 20:31N 01°22' E 103°33'3 0.5
2017-Feb-19 15:25N 01°19' E 103°33'7 7.6
2017-Feb-19 14:30N 01°12' E 103°35'1414.2
2017-Feb-19 13:33N 01°11' E 103°49'1515.7
2017-Feb-19 12:33N 01°16' E 104°04'  
2017-Feb-14 01:32N 23°47' E 118°06'1212.1
2017-Feb-14 00:34N 23°58' E 118°11'1312.6
2017-Feb-13 23:34N 24°10' E 118°17'1312.6
2017-Feb-13 22:33N 24°21' E 118°10'1010.1
2017-Feb-13 21:32N 24°29' E 118°04'1 0.6
2017-Feb-13 19:21N 24°31' E 118°05'0 0.0
2017-Feb-13 18:33N 24°31' E 118°05'0 0.0
2017-Feb-13 17:30N 24°31' E 118°05'0 0.0
2017-Feb-13 16:27N 24°31' E 118°05'0 0.0
2017-Feb-13 15:27N 24°31' E 118°05'0 0.0
2017-Feb-13 14:24N 24°31' E 118°05'2 2.0
2017-Feb-13 13:33N 24°29' E 118°04'9 8.9
2017-Feb-13 12:33N 24°22' E 118°09'1211.5
2017-Feb-13 11:33N 24°16' E 118°20'1 0.9
2017-Feb-13 10:33N 24°17' E 118°21'2 2.3
2017-Feb-13 09:33N 24°17' E 118°23'  
2017-Feb-11 04:30N 31°06' E 122°33'8 8.5
2017-Feb-11 03:34N 31°06' E 122°24'4 3.8
2017-Feb-11 02:33N 31°08' E 122°27'1 0.3
2017-Feb-11 00:18N 31°08' E 122°28'0 0.1
2017-Feb-10 23:30N 31°08' E 122°28'0 0.1
2017-Feb-10 22:33N 31°08' E 122°28'0 0.1
2017-Feb-10 21:33N 31°08' E 122°28'0 0.0
2017-Feb-10 20:28N 31°08' E 122°28'0 0.0
2017-Feb-10 19:22N 31°08' E 122°28'5 6.1
2017-Feb-10 18:33N 31°06' E 122°23'1414.1
2017-Feb-10 17:33N 31°12' E 122°08'1312.9
2017-Feb-10 16:33N 31°16' E 121°54'1110.6
2017-Feb-10 15:33N 31°20' E 121°42'  
Track history (hours):
 
Tides and Currents Weather Stations Pressure Air Temp Water Temp Dewpoint Dewpoint Depression Visibility Wind Speed Wind Dir Waves Ship Positions

Xin Dan Dong

Last reported at 2017-Feb-20 15:11 UTC. Time now 2017-Mar-23 12:25 UTC.
Position N 01°57' E 102°16'.
Warning: this ship's position is 30 days out of date.

Length 263 m; draft 12.9 m.

Type: Cargo ship. MMSI: 413153000.

Date/timePositionNaut miles runAvg speedWind from/ knotsBaromVisibWave heightAir tempDewpointWater temp
2017-Feb-20 15:11N 01°57' E 102°16'1016.1
2017-Feb-20 14:33N 01°52' E 102°25'1716.8
2017-Feb-20 13:33N 01°45' E 102°41'3916.4
2017-Feb-20 11:09N 01°24' E 103°14'1016.5
2017-Feb-20 10:33N 01°17' E 103°21'1211.4
2017-Feb-20 09:32N 01°16' E 103°33'5 1.2
2017-Feb-20 05:17N 01°22' E 103°33'0 0.0
2017-Feb-19 20:31N 01°22' E 103°33'3 0.5
2017-Feb-19 15:25N 01°19' E 103°33'7 7.6
2017-Feb-19 14:30N 01°12' E 103°35'1414.2
2017-Feb-19 13:33N 01°11' E 103°49'1515.7
2017-Feb-19 12:33N 01°16' E 104°04'  
2017-Feb-14 01:32N 23°47' E 118°06'1212.1
2017-Feb-14 00:34N 23°58' E 118°11'1312.6
2017-Feb-13 23:34N 24°10' E 118°17'1312.6
2017-Feb-13 22:33N 24°21' E 118°10'1010.1
2017-Feb-13 21:32N 24°29' E 118°04'1 0.6
2017-Feb-13 19:21N 24°31' E 118°05'0 0.0
2017-Feb-13 18:33N 24°31' E 118°05'0 0.0
2017-Feb-13 17:30N 24°31' E 118°05'0 0.0
2017-Feb-13 16:27N 24°31' E 118°05'0 0.0
2017-Feb-13 15:27N 24°31' E 118°05'0 0.0
2017-Feb-13 14:24N 24°31' E 118°05'2 2.0
2017-Feb-13 13:33N 24°29' E 118°04'9 8.9
2017-Feb-13 12:33N 24°22' E 118°09'1211.5
2017-Feb-13 11:33N 24°16' E 118°20'1 0.9
2017-Feb-13 10:33N 24°17' E 118°21'2 2.3
2017-Feb-13 09:33N 24°17' E 118°23'  
2017-Feb-11 04:30N 31°06' E 122°33'8 8.5
2017-Feb-11 03:34N 31°06' E 122°24'4 3.8
2017-Feb-11 02:33N 31°08' E 122°27'1 0.3
2017-Feb-11 00:18N 31°08' E 122°28'0 0.1
2017-Feb-10 23:30N 31°08' E 122°28'0 0.1
2017-Feb-10 22:33N 31°08' E 122°28'0 0.1
2017-Feb-10 21:33N 31°08' E 122°28'0 0.0
2017-Feb-10 20:28N 31°08' E 122°28'0 0.0
2017-Feb-10 19:22N 31°08' E 122°28'5 6.1
2017-Feb-10 18:33N 31°06' E 122°23'1414.1
2017-Feb-10 17:33N 31°12' E 122°08'1312.9
2017-Feb-10 16:33N 31°16' E 121°54'1110.6
2017-Feb-10 15:33N 31°20' E 121°42'  

Dump ship's entire track history